sensor_id;sensor_type;location;lat;lon;timestamp;pressure;altitude;pressure_sealevel;temperature
73937;BMP180;59249;59.736;30.568;2023-12-07T00:01:39;102820.00;;;-14.10
73937;BMP180;59249;59.736;30.568;2023-12-07T00:04:11;102831.00;;;-14.10
73937;BMP180;59249;59.736;30.568;2023-12-07T00:06:40;102834.00;;;-14.10
73937;BMP180;59249;59.736;30.568;2023-12-07T00:09:10;102827.00;;;-14.20
73937;BMP180;59249;59.736;30.568;2023-12-07T00:11:40;102826.00;;;-14.10
73937;BMP180;59249;59.736;30.568;2023-12-07T00:14:10;102826.00;;;-14.20
73937;BMP180;59249;59.736;30.568;2023-12-07T00:16:40;102814.00;;;-14.30
73937;BMP180;59249;59.736;30.568;2023-12-07T00:19:09;102821.00;;;-14.30
73937;BMP180;59249;59.736;30.568;2023-12-07T00:21:38;102828.00;;;-14.40
73937;BMP180;59249;59.736;30.568;2023-12-07T00:24:07;102818.00;;;-14.40
73937;BMP180;59249;59.736;30.568;2023-12-07T00:26:36;102822.00;;;-14.50
73937;BMP180;59249;59.736;30.568;2023-12-07T00:29:06;102826.00;;;-14.50
73937;BMP180;59249;59.736;30.568;2023-12-07T00:31:37;102818.00;;;-14.50
73937;BMP180;59249;59.736;30.568;2023-12-07T00:34:06;102837.00;;;-14.50
73937;BMP180;59249;59.736;30.568;2023-12-07T00:36:37;102847.00;;;-14.60
73937;BMP180;59249;59.736;30.568;2023-12-07T00:39:08;102837.00;;;-14.70
73937;BMP180;59249;59.736;30.568;2023-12-07T00:41:37;102853.00;;;-14.70
73937;BMP180;59249;59.736;30.568;2023-12-07T00:44:06;102841.00;;;-14.70
73937;BMP180;59249;59.736;30.568;2023-12-07T00:46:36;102839.00;;;-14.70
73937;BMP180;59249;59.736;30.568;2023-12-07T00:49:09;102848.00;;;-14.80
73937;BMP180;59249;59.736;30.568;2023-12-07T00:51:38;102841.00;;;-14.90
73937;BMP180;59249;59.736;30.568;2023-12-07T00:54:09;102837.00;;;-14.90
73937;BMP180;59249;59.736;30.568;2023-12-07T00:56:39;102832.00;;;-15.00
73937;BMP180;59249;59.736;30.568;2023-12-07T00:59:10;102841.00;;;-15.10
73937;BMP180;59249;59.736;30.568;2023-12-07T01:01:42;102838.00;;;-15.10
73937;BMP180;59249;59.736;30.568;2023-12-07T01:04:13;102847.00;;;-15.10
73937;BMP180;59249;59.736;30.568;2023-12-07T01:06:45;102863.00;;;-15.10
73937;BMP180;59249;59.736;30.568;2023-12-07T01:09:14;102845.00;;;-15.10
73937;BMP180;59249;59.736;30.568;2023-12-07T01:11:44;102841.00;;;-15.10
73937;BMP180;59249;59.736;30.568;2023-12-07T01:14:14;102849.00;;;-15.10
73937;BMP180;59249;59.736;30.568;2023-12-07T01:16:45;102848.00;;;-15.20
73937;BMP180;59249;59.736;30.568;2023-12-07T01:19:14;102851.00;;;-15.20
73937;BMP180;59249;59.736;30.568;2023-12-07T01:21:43;102848.00;;;-15.20
73937;BMP180;59249;59.736;30.568;2023-12-07T01:24:12;102854.00;;;-15.20
73937;BMP180;59249;59.736;30.568;2023-12-07T01:26:47;102846.00;;;-15.40
73937;BMP180;59249;59.736;30.568;2023-12-07T01:29:19;102854.00;;;-15.30
73937;BMP180;59249;59.736;30.568;2023-12-07T01:31:52;102850.00;;;-15.30
73937;BMP180;59249;59.736;30.568;2023-12-07T01:34:21;102852.00;;;-15.30
73937;BMP180;59249;59.736;30.568;2023-12-07T01:36:54;102846.00;;;-15.40
73937;BMP180;59249;59.736;30.568;2023-12-07T01:39:25;102848.00;;;-15.40
73937;BMP180;59249;59.736;30.568;2023-12-07T01:41:56;102857.00;;;-15.40
73937;BMP180;59249;59.736;30.568;2023-12-07T01:44:33;102845.00;;;-15.50
73937;BMP180;59249;59.736;30.568;2023-12-07T01:47:06;102854.00;;;-15.50
73937;BMP180;59249;59.736;30.568;2023-12-07T01:49:53;102858.00;;;-15.60
73937;BMP180;59249;59.736;30.568;2023-12-07T01:52:52;102850.00;;;-15.60
73937;BMP180;59249;59.736;30.568;2023-12-07T01:55:32;102862.00;;;-15.70
73937;BMP180;59249;59.736;30.568;2023-12-07T01:58:04;102869.00;;;-15.70
73937;BMP180;59249;59.736;30.568;2023-12-07T02:00:36;102868.00;;;-15.70
73937;BMP180;59249;59.736;30.568;2023-12-07T02:03:11;102870.00;;;-15.80
73937;BMP180;59249;59.736;30.568;2023-12-07T02:05:48;102878.00;;;-15.80
73937;BMP180;59249;59.736;30.568;2023-12-07T02:08:20;102872.00;;;-15.90
73937;BMP180;59249;59.736;30.568;2023-12-07T02:10:49;102871.00;;;-15.90
73937;BMP180;59249;59.736;30.568;2023-12-07T02:13:27;102882.00;;;-15.90
73937;BMP180;59249;59.736;30.568;2023-12-07T02:15:58;102899.00;;;-16.00
73937;BMP180;59249;59.736;30.568;2023-12-07T02:18:38;102896.00;;;-16.00
73937;BMP180;59249;59.736;30.568;2023-12-07T02:21:20;102902.00;;;-16.10
73937;BMP180;59249;59.736;30.568;2023-12-07T02:23:54;102889.00;;;-16.00
73937;BMP180;59249;59.736;30.568;2023-12-07T02:26:52;102889.00;;;-16.10
73937;BMP180;59249;59.736;30.568;2023-12-07T02:29:21;102903.00;;;-16.20
73937;BMP180;59249;59.736;30.568;2023-12-07T02:31:52;102884.00;;;-16.20
73937;BMP180;59249;59.736;30.568;2023-12-07T02:34:49;102898.00;;;-16.30
73937;BMP180;59249;59.736;30.568;2023-12-07T02:37:25;102909.00;;;-16.20
73937;BMP180;59249;59.736;30.568;2023-12-07T02:40:02;102891.00;;;-16.30
73937;BMP180;59249;59.736;30.568;2023-12-07T02:42:43;102895.00;;;-16.30
73937;BMP180;59249;59.736;30.568;2023-12-07T02:45:13;102903.00;;;-16.30
73937;BMP180;59249;59.736;30.568;2023-12-07T02:47:44;102899.00;;;-16.30
73937;BMP180;59249;59.736;30.568;2023-12-07T02:50:18;102916.00;;;-16.40
73937;BMP180;59249;59.736;30.568;2023-12-07T02:52:49;102910.00;;;-16.40
73937;BMP180;59249;59.736;30.568;2023-12-07T02:55:22;102904.00;;;-16.40
73937;BMP180;59249;59.736;30.568;2023-12-07T02:57:54;102915.00;;;-16.40
73937;BMP180;59249;59.736;30.568;2023-12-07T03:00:23;102909.00;;;-16.40
73937;BMP180;59249;59.736;30.568;2023-12-07T03:02:57;102920.00;;;-16.30
73937;BMP180;59249;59.736;30.568;2023-12-07T03:05:30;102908.00;;;-16.50
73937;BMP180;59249;59.736;30.568;2023-12-07T03:08:07;102905.00;;;-16.40
73937;BMP180;59249;59.736;30.568;2023-12-07T03:10:42;102910.00;;;-16.50
73937;BMP180;59249;59.736;30.568;2023-12-07T03:13:14;102907.00;;;-16.50
73937;BMP180;59249;59.736;30.568;2023-12-07T03:15:47;102921.00;;;-16.50
73937;BMP180;59249;59.736;30.568;2023-12-07T03:18:17;102924.00;;;-16.60
73937;BMP180;59249;59.736;30.568;2023-12-07T03:20:46;102928.00;;;-16.50
73937;BMP180;59249;59.736;30.568;2023-12-07T03:23:17;102935.00;;;-16.50
73937;BMP180;59249;59.736;30.568;2023-12-07T03:25:46;102939.00;;;-16.50
73937;BMP180;59249;59.736;30.568;2023-12-07T03:28:18;102940.00;;;-16.50
73937;BMP180;59249;59.736;30.568;2023-12-07T03:30:47;102927.00;;;-16.60
73937;BMP180;59249;59.736;30.568;2023-12-07T03:33:16;102953.00;;;-16.60
73937;BMP180;59249;59.736;30.568;2023-12-07T03:35:45;102933.00;;;-16.70
73937;BMP180;59249;59.736;30.568;2023-12-07T03:38:15;102943.00;;;-16.60
73937;BMP180;59249;59.736;30.568;2023-12-07T03:40:51;102942.00;;;-16.70
73937;BMP180;59249;59.736;30.568;2023-12-07T03:43:30;102941.00;;;-16.70
73937;BMP180;59249;59.736;30.568;2023-12-07T03:46:01;102942.00;;;-16.80
73937;BMP180;59249;59.736;30.568;2023-12-07T03:48:41;102946.00;;;-16.70
73937;BMP180;59249;59.736;30.568;2023-12-07T03:51:14;102940.00;;;-16.80
73937;BMP180;59249;59.736;30.568;2023-12-07T03:53:49;102958.00;;;-16.90
73937;BMP180;59249;59.736;30.568;2023-12-07T03:56:23;102952.00;;;-16.90
73937;BMP180;59249;59.736;30.568;2023-12-07T03:58:54;102949.00;;;-16.90
73937;BMP180;59249;59.736;30.568;2023-12-07T04:01:26;102947.00;;;-16.90
73937;BMP180;59249;59.736;30.568;2023-12-07T04:04:00;102942.00;;;-16.90
73937;BMP180;59249;59.736;30.568;2023-12-07T04:06:29;102938.00;;;-17.10
73937;BMP180;59249;59.736;30.568;2023-12-07T04:08:59;102943.00;;;-17.10
73937;BMP180;59249;59.736;30.568;2023-12-07T04:11:34;102956.00;;;-17.10
73937;BMP180;59249;59.736;30.568;2023-12-07T04:14:17;102945.00;;;-17.10
73937;BMP180;59249;59.736;30.568;2023-12-07T04:16:47;102955.00;;;-17.00
73937;BMP180;59249;59.736;30.568;2023-12-07T04:19:17;102966.00;;;-17.10
73937;BMP180;59249;59.736;30.568;2023-12-07T04:21:46;102948.00;;;-17.10
73937;BMP180;59249;59.736;30.568;2023-12-07T04:24:16;102944.00;;;-17.10
73937;BMP180;59249;59.736;30.568;2023-12-07T04:26:45;102960.00;;;-17.00
73937;BMP180;59249;59.736;30.568;2023-12-07T04:29:17;102951.00;;;-17.10
73937;BMP180;59249;59.736;30.568;2023-12-07T04:31:53;102958.00;;;-17.10
73937;BMP180;59249;59.736;30.568;2023-12-07T04:34:24;102958.00;;;-17.00
73937;BMP180;59249;59.736;30.568;2023-12-07T04:36:53;102963.00;;;-17.10
73937;BMP180;59249;59.736;30.568;2023-12-07T04:39:24;102973.00;;;-17.10
73937;BMP180;59249;59.736;30.568;2023-12-07T04:41:55;102973.00;;;-17.10
73937;BMP180;59249;59.736;30.568;2023-12-07T04:44:30;102964.00;;;-17.10
73937;BMP180;59249;59.736;30.568;2023-12-07T04:47:07;102967.00;;;-17.10
73937;BMP180;59249;59.736;30.568;2023-12-07T04:49:39;102970.00;;;-17.10
73937;BMP180;59249;59.736;30.568;2023-12-07T04:52:08;102967.00;;;-17.10
73937;BMP180;59249;59.736;30.568;2023-12-07T04:54:40;102985.00;;;-17.10
73937;BMP180;59249;59.736;30.568;2023-12-07T04:57:26;102965.00;;;-17.10
73937;BMP180;59249;59.736;30.568;2023-12-07T05:00:02;102966.00;;;-17.10
73937;BMP180;59249;59.736;30.568;2023-12-07T05:02:37;102979.00;;;-17.00
73937;BMP180;59249;59.736;30.568;2023-12-07T05:05:07;102981.00;;;-17.10
73937;BMP180;59249;59.736;30.568;2023-12-07T05:07:40;102981.00;;;-17.00
73937;BMP180;59249;59.736;30.568;2023-12-07T05:10:09;102974.00;;;-17.00
73937;BMP180;59249;59.736;30.568;2023-12-07T05:12:39;102977.00;;;-17.00
73937;BMP180;59249;59.736;30.568;2023-12-07T05:15:11;102983.00;;;-17.00
73937;BMP180;59249;59.736;30.568;2023-12-07T05:17:40;102996.00;;;-17.00
73937;BMP180;59249;59.736;30.568;2023-12-07T05:20:10;103000.00;;;-17.10
73937;BMP180;59249;59.736;30.568;2023-12-07T05:22:44;102995.00;;;-17.00
73937;BMP180;59249;59.736;30.568;2023-12-07T05:25:17;103002.00;;;-17.00
73937;BMP180;59249;59.736;30.568;2023-12-07T05:27:54;103009.00;;;-17.00
73937;BMP180;59249;59.736;30.568;2023-12-07T05:30:29;103007.00;;;-17.00
73937;BMP180;59249;59.736;30.568;2023-12-07T05:33:02;103009.00;;;-17.00
73937;BMP180;59249;59.736;30.568;2023-12-07T05:35:35;103006.00;;;-16.90
73937;BMP180;59249;59.736;30.568;2023-12-07T05:38:04;103004.00;;;-16.90
73937;BMP180;59249;59.736;30.568;2023-12-07T05:40:33;102998.00;;;-16.90
73937;BMP180;59249;59.736;30.568;2023-12-07T05:43:02;103004.00;;;-16.90
73937;BMP180;59249;59.736;30.568;2023-12-07T05:45:40;103005.00;;;-16.90
73937;BMP180;59249;59.736;30.568;2023-12-07T05:48:10;103010.00;;;-17.00
73937;BMP180;59249;59.736;30.568;2023-12-07T05:50:41;103013.00;;;-17.00
73937;BMP180;59249;59.736;30.568;2023-12-07T05:53:24;103008.00;;;-16.90
73937;BMP180;59249;59.736;30.568;2023-12-07T05:55:54;103024.00;;;-17.00
73937;BMP180;59249;59.736;30.568;2023-12-07T05:58:25;103022.00;;;-16.90
73937;BMP180;59249;59.736;30.568;2023-12-07T06:00:56;103021.00;;;-17.00
73937;BMP180;59249;59.736;30.568;2023-12-07T06:03:27;103030.00;;;-16.90
73937;BMP180;59249;59.736;30.568;2023-12-07T06:05:56;103031.00;;;-16.90
73937;BMP180;59249;59.736;30.568;2023-12-07T06:08:26;103024.00;;;-16.90
73937;BMP180;59249;59.736;30.568;2023-12-07T06:10:55;103020.00;;;-16.90
73937;BMP180;59249;59.736;30.568;2023-12-07T06:13:26;103024.00;;;-16.90
73937;BMP180;59249;59.736;30.568;2023-12-07T06:16:00;103024.00;;;-16.90
73937;BMP180;59249;59.736;30.568;2023-12-07T06:18:34;103025.00;;;-16.90
73937;BMP180;59249;59.736;30.568;2023-12-07T06:21:05;103024.00;;;-16.90
73937;BMP180;59249;59.736;30.568;2023-12-07T06:23:34;103030.00;;;-16.90
73937;BMP180;59249;59.736;30.568;2023-12-07T06:26:05;103023.00;;;-16.90
73937;BMP180;59249;59.736;30.568;2023-12-07T06:28:36;103023.00;;;-16.90
73937;BMP180;59249;59.736;30.568;2023-12-07T06:31:09;103036.00;;;-17.00
73937;BMP180;59249;59.736;30.568;2023-12-07T06:33:43;103042.00;;;-16.90
73937;BMP180;59249;59.736;30.568;2023-12-07T06:36:19;103040.00;;;-16.80
73937;BMP180;59249;59.736;30.568;2023-12-07T06:38:51;103039.00;;;-16.80
73937;BMP180;59249;59.736;30.568;2023-12-07T06:41:22;103033.00;;;-16.80
73937;BMP180;59249;59.736;30.568;2023-12-07T06:43:52;103029.00;;;-16.80
73937;BMP180;59249;59.736;30.568;2023-12-07T06:46:26;103040.00;;;-16.80
73937;BMP180;59249;59.736;30.568;2023-12-07T06:49:08;103036.00;;;-16.70
73937;BMP180;59249;59.736;30.568;2023-12-07T06:51:40;103032.00;;;-16.80
73937;BMP180;59249;59.736;30.568;2023-12-07T06:54:12;103038.00;;;-16.80
73937;BMP180;59249;59.736;30.568;2023-12-07T06:56:42;103030.00;;;-16.80
73937;BMP180;59249;59.736;30.568;2023-12-07T06:59:13;103041.00;;;-16.80
73937;BMP180;59249;59.736;30.568;2023-12-07T07:01:44;103043.00;;;-16.70
73937;BMP180;59249;59.736;30.568;2023-12-07T07:04:14;103037.00;;;-16.70
73937;BMP180;59249;59.736;30.568;2023-12-07T07:06:45;103033.00;;;-16.70
73937;BMP180;59249;59.736;30.568;2023-12-07T07:09:15;103037.00;;;-16.60
73937;BMP180;59249;59.736;30.568;2023-12-07T07:11:51;103037.00;;;-16.60
73937;BMP180;59249;59.736;30.568;2023-12-07T07:14:27;103053.00;;;-16.60
73937;BMP180;59249;59.736;30.568;2023-12-07T07:16:59;103044.00;;;-16.50
73937;BMP180;59249;59.736;30.568;2023-12-07T07:19:28;103055.00;;;-16.50
73937;BMP180;59249;59.736;30.568;2023-12-07T07:22:02;103051.00;;;-16.60
73937;BMP180;59249;59.736;30.568;2023-12-07T07:24:40;103045.00;;;-16.50
73937;BMP180;59249;59.736;30.568;2023-12-07T07:27:09;103051.00;;;-16.40
73937;BMP180;59249;59.736;30.568;2023-12-07T07:29:47;103059.00;;;-16.40
73937;BMP180;59249;59.736;30.568;2023-12-07T07:32:20;103048.00;;;-16.40
73937;BMP180;59249;59.736;30.568;2023-12-07T07:34:56;103051.00;;;-16.30
73937;BMP180;59249;59.736;30.568;2023-12-07T07:37:29;103057.00;;;-16.30
73937;BMP180;59249;59.736;30.568;2023-12-07T07:40:00;103049.00;;;-16.40
73937;BMP180;59249;59.736;30.568;2023-12-07T07:42:34;103056.00;;;-16.30
73937;BMP180;59249;59.736;30.568;2023-12-07T07:45:08;103058.00;;;-16.30
73937;BMP180;59249;59.736;30.568;2023-12-07T07:47:40;103058.00;;;-16.20
73937;BMP180;59249;59.736;30.568;2023-12-07T07:50:17;103051.00;;;-16.20
73937;BMP180;59249;59.736;30.568;2023-12-07T07:52:47;103055.00;;;-16.10
73937;BMP180;59249;59.736;30.568;2023-12-07T07:55:16;103059.00;;;-16.20
73937;BMP180;59249;59.736;30.568;2023-12-07T07:57:45;103062.00;;;-16.10
73937;BMP180;59249;59.736;30.568;2023-12-07T08:00:15;103056.00;;;-16.10
73937;BMP180;59249;59.736;30.568;2023-12-07T08:02:49;103068.00;;;-16.00
73937;BMP180;59249;59.736;30.568;2023-12-07T08:05:19;103070.00;;;-16.00
73937;BMP180;59249;59.736;30.568;2023-12-07T08:07:49;103060.00;;;-16.00
73937;BMP180;59249;59.736;30.568;2023-12-07T08:10:19;103070.00;;;-15.90
73937;BMP180;59249;59.736;30.568;2023-12-07T08:12:51;103067.00;;;-15.90
73937;BMP180;59249;59.736;30.568;2023-12-07T08:15:20;103077.00;;;-15.90
73937;BMP180;59249;59.736;30.568;2023-12-07T08:17:51;103081.00;;;-15.80
73937;BMP180;59249;59.736;30.568;2023-12-07T08:20:20;103064.00;;;-15.80
73937;BMP180;59249;59.736;30.568;2023-12-07T08:22:52;103063.00;;;-15.80
73937;BMP180;59249;59.736;30.568;2023-12-07T08:25:25;103069.00;;;-15.70
73937;BMP180;59249;59.736;30.568;2023-12-07T08:27:54;103062.00;;;-15.70
73937;BMP180;59249;59.736;30.568;2023-12-07T08:30:24;103074.00;;;-15.80
73937;BMP180;59249;59.736;30.568;2023-12-07T08:32:55;103080.00;;;-15.70
73937;BMP180;59249;59.736;30.568;2023-12-07T08:35:25;103068.00;;;-15.70
73937;BMP180;59249;59.736;30.568;2023-12-07T08:37:56;103063.00;;;-15.70
73937;BMP180;59249;59.736;30.568;2023-12-07T08:40:26;103076.00;;;-15.70
73937;BMP180;59249;59.736;30.568;2023-12-07T08:42:56;103074.00;;;-15.70
73937;BMP180;59249;59.736;30.568;2023-12-07T08:45:31;103075.00;;;-15.60
73937;BMP180;59249;59.736;30.568;2023-12-07T08:48:11;103065.00;;;-15.50
73937;BMP180;59249;59.736;30.568;2023-12-07T08:50:41;103081.00;;;-15.50
73937;BMP180;59249;59.736;30.568;2023-12-07T08:53:11;103081.00;;;-15.50
73937;BMP180;59249;59.736;30.568;2023-12-07T08:55:40;103077.00;;;-15.40
73937;BMP180;59249;59.736;30.568;2023-12-07T08:58:09;103086.00;;;-15.40
73937;BMP180;59249;59.736;30.568;2023-12-07T09:00:39;103090.00;;;-15.50
73937;BMP180;59249;59.736;30.568;2023-12-07T09:03:11;103094.00;;;-15.40
73937;BMP180;59249;59.736;30.568;2023-12-07T09:05:40;103086.00;;;-15.50
73937;BMP180;59249;59.736;30.568;2023-12-07T09:08:09;103092.00;;;-15.40
73937;BMP180;59249;59.736;30.568;2023-12-07T09:10:38;103095.00;;;-15.50
73937;BMP180;59249;59.736;30.568;2023-12-07T09:13:09;103099.00;;;-15.40
73937;BMP180;59249;59.736;30.568;2023-12-07T09:15:38;103093.00;;;-15.40
73937;BMP180;59249;59.736;30.568;2023-12-07T09:18:07;103096.00;;;-15.40
73937;BMP180;59249;59.736;30.568;2023-12-07T09:20:41;103091.00;;;-15.30
73937;BMP180;59249;59.736;30.568;2023-12-07T09:23:15;103093.00;;;-15.40
73937;BMP180;59249;59.736;30.568;2023-12-07T09:25:45;103091.00;;;-15.40
73937;BMP180;59249;59.736;30.568;2023-12-07T09:28:16;103107.00;;;-15.40
73937;BMP180;59249;59.736;30.568;2023-12-07T09:30:45;103097.00;;;-15.30
73937;BMP180;59249;59.736;30.568;2023-12-07T09:33:14;103106.00;;;-15.30
73937;BMP180;59249;59.736;30.568;2023-12-07T09:35:50;103100.00;;;-15.20
73937;BMP180;59249;59.736;30.568;2023-12-07T09:38:24;103100.00;;;-15.20
73937;BMP180;59249;59.736;30.568;2023-12-07T09:40:55;103100.00;;;-15.20
73937;BMP180;59249;59.736;30.568;2023-12-07T09:43:27;103103.00;;;-15.10
73937;BMP180;59249;59.736;30.568;2023-12-07T09:45:59;103096.00;;;-15.00
73937;BMP180;59249;59.736;30.568;2023-12-07T09:48:31;103100.00;;;-14.80
73937;BMP180;59249;59.736;30.568;2023-12-07T09:51:11;103106.00;;;-14.80
73937;BMP180;59249;59.736;30.568;2023-12-07T09:53:42;103104.00;;;-14.70
73937;BMP180;59249;59.736;30.568;2023-12-07T09:56:13;103097.00;;;-14.50
73937;BMP180;59249;59.736;30.568;2023-12-07T09:58:45;103101.00;;;-14.50
73937;BMP180;59249;59.736;30.568;2023-12-07T10:01:20;103107.00;;;-14.30
73937;BMP180;59249;59.736;30.568;2023-12-07T10:04:14;103099.00;;;-14.40
73937;BMP180;59249;59.736;30.568;2023-12-07T10:07:05;103101.00;;;-14.20
73937;BMP180;59249;59.736;30.568;2023-12-07T10:09:44;103099.00;;;-14.20
73937;BMP180;59249;59.736;30.568;2023-12-07T10:12:15;103105.00;;;-14.10
73937;BMP180;59249;59.736;30.568;2023-12-07T10:14:45;103107.00;;;-14.10
73937;BMP180;59249;59.736;30.568;2023-12-07T10:17:16;103116.00;;;-14.10
73937;BMP180;59249;59.736;30.568;2023-12-07T10:19:44;103099.00;;;-14.00
73937;BMP180;59249;59.736;30.568;2023-12-07T10:22:15;103098.00;;;-14.00
73937;BMP180;59249;59.736;30.568;2023-12-07T10:24:48;103096.00;;;-14.00
73937;BMP180;59249;59.736;30.568;2023-12-07T10:27:17;103090.00;;;-14.10
73937;BMP180;59249;59.736;30.568;2023-12-07T10:29:49;103097.00;;;-14.10
73937;BMP180;59249;59.736;30.568;2023-12-07T10:32:21;103096.00;;;-14.10
73937;BMP180;59249;59.736;30.568;2023-12-07T10:34:52;103100.00;;;-14.30
73937;BMP180;59249;59.736;30.568;2023-12-07T10:37:25;103102.00;;;-14.00
73937;BMP180;59249;59.736;30.568;2023-12-07T10:39:55;103098.00;;;-14.10
73937;BMP180;59249;59.736;30.568;2023-12-07T10:42:24;103097.00;;;-14.00
73937;BMP180;59249;59.736;30.568;2023-12-07T10:45:04;103095.00;;;-14.00
73937;BMP180;59249;59.736;30.568;2023-12-07T10:47:36;103105.00;;;-14.00
73937;BMP180;59249;59.736;30.568;2023-12-07T10:50:08;103101.00;;;-13.90
73937;BMP180;59249;59.736;30.568;2023-12-07T10:52:48;103113.00;;;-13.90
73937;BMP180;59249;59.736;30.568;2023-12-07T10:55:26;103108.00;;;-13.80
73937;BMP180;59249;59.736;30.568;2023-12-07T10:58:01;103118.00;;;-13.80
73937;BMP180;59249;59.736;30.568;2023-12-07T11:00:33;103112.00;;;-13.80
73937;BMP180;59249;59.736;30.568;2023-12-07T11:03:21;103108.00;;;-13.70
73937;BMP180;59249;59.736;30.568;2023-12-07T11:05:51;103118.00;;;-13.60
73937;BMP180;59249;59.736;30.568;2023-12-07T11:08:28;103121.00;;;-13.70
73937;BMP180;59249;59.736;30.568;2023-12-07T11:11:10;103121.00;;;-13.60
73937;BMP180;59249;59.736;30.568;2023-12-07T11:13:58;103116.00;;;-13.50
73937;BMP180;59249;59.736;30.568;2023-12-07T11:16:31;103122.00;;;-13.70
73937;BMP180;59249;59.736;30.568;2023-12-07T11:19:01;103119.00;;;-13.50
73937;BMP180;59249;59.736;30.568;2023-12-07T11:21:34;103125.00;;;-13.60
73937;BMP180;59249;59.736;30.568;2023-12-07T11:24:07;103128.00;;;-13.70
73937;BMP180;59249;59.736;30.568;2023-12-07T11:26:38;103126.00;;;-13.80
73937;BMP180;59249;59.736;30.568;2023-12-07T11:29:19;103123.00;;;-13.90
73937;BMP180;59249;59.736;30.568;2023-12-07T11:31:58;103121.00;;;-13.90
73937;BMP180;59249;59.736;30.568;2023-12-07T11:34:48;103114.00;;;-14.00
73937;BMP180;59249;59.736;30.568;2023-12-07T11:37:20;103122.00;;;-14.00
73937;BMP180;59249;59.736;30.568;2023-12-07T11:40:35;103128.00;;;-14.10
73937;BMP180;59249;59.736;30.568;2023-12-07T11:43:07;103116.00;;;-14.10
73937;BMP180;59249;59.736;30.568;2023-12-07T11:45:40;103107.00;;;-14.10
73937;BMP180;59249;59.736;30.568;2023-12-07T11:48:13;103107.00;;;-14.20
73937;BMP180;59249;59.736;30.568;2023-12-07T11:51:19;103108.00;;;-14.20
73937;BMP180;59249;59.736;30.568;2023-12-07T11:53:49;103101.00;;;-14.20
73937;BMP180;59249;59.736;30.568;2023-12-07T11:56:21;103101.00;;;-14.20
73937;BMP180;59249;59.736;30.568;2023-12-07T11:58:53;103102.00;;;-14.40
73937;BMP180;59249;59.736;30.568;2023-12-07T12:01:26;103102.00;;;-14.30
73937;BMP180;59249;59.736;30.568;2023-12-07T12:03:59;103103.00;;;-14.30
73937;BMP180;59249;59.736;30.568;2023-12-07T12:06:32;103102.00;;;-14.30
73937;BMP180;59249;59.736;30.568;2023-12-07T12:09:02;103106.00;;;-14.20
73937;BMP180;59249;59.736;30.568;2023-12-07T12:11:44;103106.00;;;-14.20
73937;BMP180;59249;59.736;30.568;2023-12-07T12:14:14;103094.00;;;-14.30
73937;BMP180;59249;59.736;30.568;2023-12-07T12:16:45;103100.00;;;-14.20
73937;BMP180;59249;59.736;30.568;2023-12-07T12:19:14;103101.00;;;-14.10
73937;BMP180;59249;59.736;30.568;2023-12-07T12:22:01;103100.00;;;-14.10
73937;BMP180;59249;59.736;30.568;2023-12-07T12:24:37;103102.00;;;-14.00
73937;BMP180;59249;59.736;30.568;2023-12-07T12:27:13;103098.00;;;-14.00
73937;BMP180;59249;59.736;30.568;2023-12-07T12:29:43;103095.00;;;-13.90
73937;BMP180;59249;59.736;30.568;2023-12-07T12:32:15;103102.00;;;-13.90
73937;BMP180;59249;59.736;30.568;2023-12-07T12:34:45;103107.00;;;-13.90
73937;BMP180;59249;59.736;30.568;2023-12-07T12:37:14;103101.00;;;-13.90
73937;BMP180;59249;59.736;30.568;2023-12-07T12:39:43;103099.00;;;-13.90
73937;BMP180;59249;59.736;30.568;2023-12-07T12:42:17;103095.00;;;-13.90
73937;BMP180;59249;59.736;30.568;2023-12-07T12:44:48;103092.00;;;-13.90
73937;BMP180;59249;59.736;30.568;2023-12-07T12:47:20;103091.00;;;-13.80
73937;BMP180;59249;59.736;30.568;2023-12-07T12:49:49;103088.00;;;-13.80
73937;BMP180;59249;59.736;30.568;2023-12-07T12:52:19;103097.00;;;-13.80
73937;BMP180;59249;59.736;30.568;2023-12-07T12:54:48;103103.00;;;-13.80
73937;BMP180;59249;59.736;30.568;2023-12-07T12:57:18;103101.00;;;-13.70
73937;BMP180;59249;59.736;30.568;2023-12-07T12:59:48;103102.00;;;-13.80
73937;BMP180;59249;59.736;30.568;2023-12-07T13:02:19;103091.00;;;-13.70
73937;BMP180;59249;59.736;30.568;2023-12-07T13:04:49;103103.00;;;-13.70
73937;BMP180;59249;59.736;30.568;2023-12-07T13:07:20;103112.00;;;-13.70
73937;BMP180;59249;59.736;30.568;2023-12-07T13:09:52;103096.00;;;-13.80
73937;BMP180;59249;59.736;30.568;2023-12-07T13:12:23;103103.00;;;-13.80
73937;BMP180;59249;59.736;30.568;2023-12-07T13:14:56;103099.00;;;-13.80
73937;BMP180;59249;59.736;30.568;2023-12-07T13:17:26;103097.00;;;-13.90
73937;BMP180;59249;59.736;30.568;2023-12-07T13:19:58;103111.00;;;-13.80
73937;BMP180;59249;59.736;30.568;2023-12-07T13:22:39;103105.00;;;-13.80
73937;BMP180;59249;59.736;30.568;2023-12-07T13:25:11;103103.00;;;-13.90
73937;BMP180;59249;59.736;30.568;2023-12-07T13:27:47;103099.00;;;-13.90
73937;BMP180;59249;59.736;30.568;2023-12-07T13:30:19;103101.00;;;-13.80
73937;BMP180;59249;59.736;30.568;2023-12-07T13:32:59;103106.00;;;-13.80
73937;BMP180;59249;59.736;30.568;2023-12-07T13:35:46;103109.00;;;-13.80
73937;BMP180;59249;59.736;30.568;2023-12-07T13:38:15;103098.00;;;-13.90
73937;BMP180;59249;59.736;30.568;2023-12-07T13:40:47;103101.00;;;-13.90
73937;BMP180;59249;59.736;30.568;2023-12-07T13:43:18;103096.00;;;-13.90
73937;BMP180;59249;59.736;30.568;2023-12-07T13:45:48;103097.00;;;-13.90
73937;BMP180;59249;59.736;30.568;2023-12-07T13:48:18;103088.00;;;-14.00
73937;BMP180;59249;59.736;30.568;2023-12-07T13:50:48;103097.00;;;-14.00
73937;BMP180;59249;59.736;30.568;2023-12-07T13:53:17;103096.00;;;-14.10
73937;BMP180;59249;59.736;30.568;2023-12-07T13:55:47;103100.00;;;-14.10
73937;BMP180;59249;59.736;30.568;2023-12-07T13:58:19;103106.00;;;-14.10
73937;BMP180;59249;59.736;30.568;2023-12-07T14:00:52;103103.00;;;-14.20
73937;BMP180;59249;59.736;30.568;2023-12-07T14:03:21;103103.00;;;-14.20